Main page
METAR-TAF:

METAR-TAF

Airports :

Palma de Mallorca, Spain

Palma de Mallorca Airport

latitude: 39-33N, longitude: 002-44E, elevation: 4 m

Current weather observation

The report was made 15 minutes ago, at 04:30 UTC
Calm wind
Temperature 8°C
Humidity 93%
Pressure 1013 hPa
Visibility 10 km or more
no clouds below 1500 m and no cumulonimbus

METAR: LEPA 270430Z 00000KT CAVOK 08/07 Q1013 NOSIG

Time: 06:45 (04:45 UTC)

Forecast

The report was made 5 hours and 45 minutes ago, at 23:00 UTC
Forecast valid from 27 at 00 UTC to 27 at 24 UTC
Wind 4 kt from the Northeast
Visibility 10 km or more
Few clouds at a height of 5000 ft
Becoming
from 27 at 10 UTC to 27 at 12 UTC
Wind 12 kt from the South/Southwest
Becoming
from 27 at 18 UTC to 27 at 20 UTC
Wind 5 kt from the East/Southeast

TAF: LEPA 262300Z 2700/2724 04004KT 9999 FEW050 TX23/2712Z TN10/2706Z BECMG 2710/2712 21012KT BECMG 2718/2720 12005KT

Weather observations and forecasts of more than 4000 airports (METAR and TAF reports).

The available stations are represented by yellow and red dots on the map.

Hover mouse over dot to see the name of the station.

Then click to see weather observations and forecasts.

To change the map : click on the green buttons with a black cross to zoom in, on the green button with a dash to zoom out, or on the green arrows for adjacent maps.


METAR-TAF: